Time;durP1;ratioP1;P1;durP2;ratioP2;P2;SDS_P1;SDS_P2;PMS_P1;PMS_P2;Temp;Humidity;BMP_temperature;BMP_pressure;BME280_temperature;BME280_humidity;BME280_pressure;Samples;Min_cycle;Max_cycle;Signal;HPM_P1;HPM_P2
2023/05/20 00:01:06;;;;;;;15.48;6.53;;;;;;;;;;5014610;28;20026;-69
2023/05/20 00:03:32;;;;;;;13.25;5.28;;;;;;;;;;5014542;28;20025;-65
2023/05/20 00:05:58;;;;;;;18.95;5.55;;;;;;;;;;5014590;28;20109;-66
2023/05/20 00:08:24;;;;;;;18.42;5.50;;;;;;;;;;5013359;28;20079;-66
2023/05/20 00:10:50;;;;;;;16.88;6.18;;;;;;;;;;5014285;28;20022;-65
2023/05/20 00:13:16;;;;;;;24.65;6.43;;;;;;;;;;5014507;28;20029;-66
2023/05/20 00:15:42;;;;;;;22.17;6.68;;;;;;;;;;5014218;28;20022;-65
2023/05/20 00:18:08;;;;;;;16.55;5.85;;;;;;;;;;5014226;28;20037;-66
2023/05/20 00:20:34;;;;;;;18.08;6.10;;;;;;;;;;5014142;28;20022;-67
2023/05/20 00:23:00;;;;;;;16.88;5.93;;;;;;;;;;5011601;28;20058;-66
2023/05/20 00:25:26;;;;;;;16.88;6.15;;;;;;;;;;5013969;28;20058;-67
2023/05/20 00:27:52;;;;;;;17.58;5.63;;;;;;;;;;5012754;28;20493;-67
2023/05/20 00:30:18;;;;;;;14.27;6.13;;;;;;;;;;5014141;28;20453;-67
2023/05/20 00:32:45;;;;;;;14.02;6.88;;;;;;;;;;5013983;28;20050;-65
2023/05/20 00:35:11;;;;;;;16.85;7.70;;;;;;;;;;5012658;28;20022;-65
2023/05/20 00:37:37;;;;;;;14.50;5.80;;;;;;;;;;5013880;28;20026;-68
2023/05/20 00:40:04;;;;;;;12.10;5.32;;;;;;;;;;5012983;28;20070;-67
2023/05/20 00:42:30;;;;;;;11.05;5.55;;;;;;;;;;5014465;28;20519;-65
2023/05/20 00:44:56;;;;;;;12.95;5.57;;;;;;;;;;5014015;28;20022;-67
2023/05/20 00:47:26;;;;;;;14.55;6.18;;;;;;;;;;5013903;28;20041;-67
2023/05/20 00:49:52;;;;;;;13.52;6.20;;;;;;;;;;5013636;28;20033;-67
2023/05/20 00:52:18;;;;;;;15.50;5.63;;;;;;;;;;5013651;28;20485;-66
2023/05/20 00:54:45;;;;;;;16.90;6.30;;;;;;;;;;5013681;28;20048;-66
2023/05/20 00:57:11;;;;;;;18.23;6.15;;;;;;;;;;5012779;28;20033;-66
2023/05/20 00:59:38;;;;;;;18.17;5.82;;;;;;;;;;5013614;28;20061;-66
2023/05/20 01:02:04;;;;;;;14.60;5.72;;;;;;;;;;5013576;28;20479;-66
2023/05/20 01:04:31;;;;;;;14.52;6.50;;;;;;;;;;5013158;28;20156;-66
2023/05/20 01:06:57;;;;;;;13.70;6.43;;;;;;;;;;5013312;28;20108;-66
2023/05/20 01:09:26;;;;;;;19.90;6.10;;;;;;;;;;5013446;28;20033;-65
2023/05/20 01:12:01;;;;;;;13.52;6.45;;;;;;;;;;5012181;28;20041;-66
2023/05/20 01:14:29;;;;;;;12.27;5.50;;;;;;;;;;5013186;28;20118;-66
2023/05/20 01:16:57;;;;;;;16.00;5.75;;;;;;;;;;5013290;28;20033;-65
2023/05/20 01:19:36;;;;;;;11.82;6.22;;;;;;;;;;5012115;28;20433;-65
2023/05/20 01:22:05;;;;;;;12.85;5.90;;;;;;;;;;5013176;28;20018;-68
2023/05/20 01:24:31;;;;;;;18.42;6.13;;;;;;;;;;5011653;28;20132;-66
2023/05/20 01:26:57;;;;;;;14.00;5.55;;;;;;;;;;5011661;28;20080;-67
2023/05/20 01:29:25;;;;;;;16.67;5.43;;;;;;;;;;5011881;28;20026;-67
2023/05/20 01:31:53;;;;;;;15.02;6.15;;;;;;;;;;5012866;28;20037;-67
2023/05/20 01:34:19;;;;;;;14.68;5.80;;;;;;;;;;5012802;28;20034;-65
2023/05/20 01:36:46;;;;;;;14.65;6.40;;;;;;;;;;5012848;28;20069;-66
2023/05/20 01:39:12;;;;;;;17.48;5.90;;;;;;;;;;5012383;28;20117;-67
2023/05/20 01:41:39;;;;;;;17.85;5.90;;;;;;;;;;5012548;28;20034;-66
2023/05/20 01:44:05;;;;;;;15.65;6.15;;;;;;;;;;5012721;28;20026;-68
2023/05/20 01:46:34;;;;;;;17.27;6.72;;;;;;;;;;5011657;28;20022;-66
2023/05/20 01:49:00;;;;;;;14.88;6.85;;;;;;;;;;5012800;28;20026;-67
2023/05/20 01:51:26;;;;;;;20.58;6.95;;;;;;;;;;5012489;28;20025;-67
2023/05/20 01:53:52;;;;;;;16.17;6.40;;;;;;;;;;5012741;28;20080;-67
2023/05/20 01:56:19;;;;;;;18.75;7.32;;;;;;;;;;5012734;28;20030;-67
2023/05/20 01:58:45;;;;;;;20.35;6.60;;;;;;;;;;5012402;28;20120;-68
2023/05/20 02:01:11;;;;;;;12.65;6.18;;;;;;;;;;5012771;28;20109;-67
2023/05/20 02:03:37;;;;;;;22.40;8.27;;;;;;;;;;5011470;28;20108;-67
2023/05/20 02:06:03;;;;;;;18.65;6.55;;;;;;;;;;5012576;28;20041;-66
2023/05/20 02:08:29;;;;;;;14.85;6.72;;;;;;;;;;5012335;28;20029;-65
2023/05/20 02:10:55;;;;;;;22.08;7.32;;;;;;;;;;5010928;28;20125;-67
2023/05/20 02:13:21;;;;;;;14.32;6.20;;;;;;;;;;5010951;28;20069;-67
2023/05/20 02:15:47;;;;;;;16.42;6.53;;;;;;;;;;5010997;28;20066;-65
2023/05/20 02:18:17;;;;;;;13.73;6.95;;;;;;;;;;5011110;28;20560;-66
2023/05/20 02:20:43;;;;;;;16.90;7.35;;;;;;;;;;5011987;28;20029;-69
2023/05/20 02:23:09;;;;;;;15.30;6.78;;;;;;;;;;5011816;28;20017;-66
2023/05/20 02:25:35;;;;;;;21.10;7.53;;;;;;;;;;5011856;28;20046;-67
2023/05/20 02:28:04;;;;;;;16.02;6.85;;;;;;;;;;5011777;28;20022;-66
2023/05/20 02:30:30;;;;;;;13.27;7.22;;;;;;;;;;5011845;28;20549;-65
2023/05/20 02:32:56;;;;;;;20.90;7.00;;;;;;;;;;5010996;28;20113;-65
2023/05/20 02:35:23;;;;;;;15.88;6.97;;;;;;;;;;5012008;28;20050;-69
2023/05/20 02:37:49;;;;;;;21.25;7.20;;;;;;;;;;5011864;28;20022;-67
2023/05/20 02:40:15;;;;;;;20.52;7.63;;;;;;;;;;5011676;28;20038;-70
2023/05/20 02:42:41;;;;;;;15.77;8.00;;;;;;;;;;5011911;28;20486;-66
2023/05/20 02:45:07;;;;;;;14.55;7.90;;;;;;;;;;5010429;28;20121;-66
2023/05/20 02:47:33;;;;;;;17.50;7.70;;;;;;;;;;5011765;28;20030;-67
2023/05/20 02:49:59;;;;;;;18.95;7.43;;;;;;;;;;5010850;28;20037;-65
2023/05/20 02:52:26;;;;;;;19.38;8.02;;;;;;;;;;5010641;28;20105;-66
2023/05/20 02:54:52;;;;;;;20.92;7.60;;;;;;;;;;5010217;28;20068;-66
2023/05/20 02:57:18;;;;;;;17.63;8.13;;;;;;;;;;5010379;28;20383;-66
2023/05/20 02:59:44;;;;;;;26.45;8.55;;;;;;;;;;5011433;28;20069;-65
2023/05/20 03:02:10;;;;;;;16.52;7.68;;;;;;;;;;5012027;28;20421;-66
2023/05/20 03:04:37;;;;;;;17.52;7.80;;;;;;;;;;5011458;28;20022;-66
2023/05/20 03:07:06;;;;;;;19.98;8.40;;;;;;;;;;5010608;28;20056;-65
2023/05/20 03:09:32;;;;;;;19.33;8.55;;;;;;;;;;5010412;28;20095;-67
2023/05/20 03:11:58;;;;;;;18.00;8.60;;;;;;;;;;5011456;28;20029;-66
2023/05/20 03:14:24;;;;;;;21.30;8.90;;;;;;;;;;5011454;28;20559;-67
2023/05/20 03:16:51;;;;;;;23.00;8.23;;;;;;;;;;5011656;28;20144;-67
2023/05/20 03:19:17;;;;;;;24.92;9.13;;;;;;;;;;5011339;28;20121;-66
2023/05/20 03:21:43;;;;;;;19.17;8.88;;;;;;;;;;5011390;28;20029;-67
2023/05/20 03:24:09;;;;;;;23.23;9.57;;;;;;;;;;5008968;28;20029;-67
2023/05/20 03:26:37;;;;;;;22.02;9.25;;;;;;;;;;5010240;28;20057;-66
2023/05/20 03:29:04;;;;;;;21.80;9.25;;;;;;;;;;5011306;28;20026;-65
2023/05/20 03:31:30;;;;;;;25.08;11.10;;;;;;;;;;5011326;28;20487;-67
2023/05/20 03:33:56;;;;;;;21.70;9.50;;;;;;;;;;5010829;28;20475;-67
2023/05/20 03:36:23;;;;;;;23.63;10.70;;;;;;;;;;5011397;28;20105;-68
2023/05/20 03:38:49;;;;;;;27.83;10.70;;;;;;;;;;5011078;28;20045;-68
2023/05/20 03:41:15;;;;;;;29.65;10.10;;;;;;;;;;5009035;28;20026;-65
2023/05/20 03:43:41;;;;;;;29.38;9.90;;;;;;;;;;5011384;28;20026;-67
2023/05/20 03:46:07;;;;;;;26.85;10.30;;;;;;;;;;5011164;28;20405;-66
2023/05/20 03:48:33;;;;;;;30.55;11.60;;;;;;;;;;5011200;28;20376;-67
2023/05/20 03:51:00;;;;;;;29.52;10.40;;;;;;;;;;5010265;28;20525;-66
2023/05/20 03:53:26;;;;;;;29.13;11.25;;;;;;;;;;5011016;28;20068;-67
2023/05/20 03:55:52;;;;;;;21.88;9.93;;;;;;;;;;5011254;28;20030;-67
2023/05/20 03:58:22;;;;;;;30.25;10.45;;;;;;;;;;5011020;28;20026;-66
2023/05/20 04:00:48;;;;;;;25.00;10.23;;;;;;;;;;5011313;28;20029;-67
2023/05/20 04:03:14;;;;;;;33.75;10.88;;;;;;;;;;5012368;28;20049;-66
2023/05/20 04:05:40;;;;;;;29.48;11.40;;;;;;;;;;5013609;28;20033;-66
2023/05/20 04:08:08;;;;;;;32.40;11.85;;;;;;;;;;5014712;28;20665;-66
2023/05/20 04:10:34;;;;;;;28.85;10.90;;;;;;;;;;5014569;28;20034;-65
2023/05/20 04:13:01;;;;;;;33.95;11.77;;;;;;;;;;5014481;28;20076;-65
2023/05/20 04:15:28;;;;;;;28.23;11.93;;;;;;;;;;5014270;28;20030;-65
2023/05/20 04:17:54;;;;;;;30.17;10.95;;;;;;;;;;5014103;28;20029;-66
2023/05/20 04:20:20;;;;;;;25.20;10.82;;;;;;;;;;5014099;28;20026;-66
2023/05/20 04:22:47;;;;;;;26.88;10.35;;;;;;;;;;5013168;28;20022;-65
2023/05/20 04:25:13;;;;;;;24.40;11.52;;;;;;;;;;5014047;28;20406;-66
2023/05/20 04:27:39;;;;;;;30.08;12.07;;;;;;;;;;5014130;28;20022;-66
2023/05/20 04:30:06;;;;;;;27.88;11.48;;;;;;;;;;5014271;28;20084;-65
2023/05/20 04:32:33;;;;;;;26.98;11.02;;;;;;;;;;5013703;28;20072;-65
2023/05/20 04:35:00;;;;;;;24.63;10.70;;;;;;;;;;5012659;28;20026;-65
2023/05/20 04:37:27;;;;;;;25.08;11.35;;;;;;;;;;5013773;28;20018;-66
2023/05/20 04:39:53;;;;;;;29.15;11.07;;;;;;;;;;5011535;28;20041;-66
2023/05/20 04:42:21;;;;;;;28.10;11.80;;;;;;;;;;5013788;28;20101;-66
2023/05/20 04:44:47;;;;;;;25.42;12.02;;;;;;;;;;5013473;28;20026;-66
2023/05/20 04:47:14;;;;;;;31.08;11.23;;;;;;;;;;5013388;28;20045;-66
2023/05/20 04:49:41;;;;;;;28.65;11.60;;;;;;;;;;5013435;28;20719;-67
2023/05/20 04:52:07;;;;;;;23.65;11.88;;;;;;;;;;5013903;28;20112;-66
2023/05/20 04:54:33;;;;;;;26.15;11.38;;;;;;;;;;5013651;28;20018;-65
2023/05/20 04:56:59;;;;;;;26.58;11.05;;;;;;;;;;5012600;28;20032;-65
2023/05/20 04:59:25;;;;;;;24.63;11.60;;;;;;;;;;5013172;28;20128;-66
2023/05/20 05:01:51;;;;;;;25.95;11.00;;;;;;;;;;5013219;28;20105;-67
2023/05/20 05:04:17;;;;;;;31.77;11.68;;;;;;;;;;5013108;28;20081;-67
2023/05/20 05:06:43;;;;;;;27.95;12.20;;;;;;;;;;5013246;28;20026;-66
2023/05/20 05:09:09;;;;;;;31.30;11.18;;;;;;;;;;5013157;28;20034;-65
2023/05/20 05:11:35;;;;;;;27.50;10.55;;;;;;;;;;5013386;28;20478;-66
2023/05/20 05:14:01;;;;;;;29.40;10.65;;;;;;;;;;5011733;28;20022;-67
2023/05/20 05:16:27;;;;;;;31.20;11.98;;;;;;;;;;5011388;28;20022;-65
2023/05/20 05:18:53;;;;;;;35.58;11.43;;;;;;;;;;5013033;28;20065;-66
2023/05/20 05:21:19;;;;;;;29.05;11.70;;;;;;;;;;5012969;28;20594;-64
2023/05/20 05:23:45;;;;;;;31.10;12.40;;;;;;;;;;5012531;28;20038;-64
2023/05/20 05:26:11;;;;;;;32.00;13.07;;;;;;;;;;5012757;28;20462;-66
2023/05/20 05:28:37;;;;;;;28.80;11.50;;;;;;;;;;5012839;28;20105;-65
2023/05/20 05:31:05;;;;;;;33.35;11.98;;;;;;;;;;5011780;28;20121;-64
2023/05/20 05:33:31;;;;;;;23.45;12.05;;;;;;;;;;5012701;28;20022;-65
2023/05/20 05:35:57;;;;;;;29.98;12.40;;;;;;;;;;5012696;28;20482;-65
2023/05/20 05:38:24;;;;;;;28.73;11.88;;;;;;;;;;5012606;28;20025;-65
2023/05/20 05:40:50;;;;;;;28.10;12.27;;;;;;;;;;5012354;28;20026;-65
2023/05/20 05:43:16;;;;;;;31.20;12.50;;;;;;;;;;5012231;28;20030;-66
2023/05/20 05:45:42;;;;;;;29.65;12.68;;;;;;;;;;5011685;28;20105;-66
2023/05/20 05:48:08;;;;;;;27.80;12.60;;;;;;;;;;5012767;28;20175;-65
2023/05/20 05:50:34;;;;;;;27.23;11.95;;;;;;;;;;5012331;28;20505;-66
2023/05/20 05:53:01;;;;;;;28.58;12.85;;;;;;;;;;5012677;28;20022;-66
2023/05/20 05:55:27;;;;;;;30.88;13.65;;;;;;;;;;5012436;28;20033;-66
2023/05/20 05:57:53;;;;;;;26.17;12.55;;;;;;;;;;5012630;28;20029;-64
2023/05/20 06:00:19;;;;;;;31.52;13.48;;;;;;;;;;5012222;28;20422;-66
2023/05/20 06:02:46;;;;;;;35.65;12.93;;;;;;;;;;5012410;28;20104;-66
2023/05/20 06:05:12;;;;;;;30.00;12.20;;;;;;;;;;5011421;28;20025;-65
2023/05/20 06:07:38;;;;;;;27.90;12.68;;;;;;;;;;5007275;28;20100;-65
2023/05/20 06:10:05;;;;;;;28.90;12.25;;;;;;;;;;5006540;28;20433;-66
2023/05/20 06:12:31;;;;;;;24.45;12.88;;;;;;;;;;5008690;28;20034;-66
2023/05/20 06:14:57;;;;;;;22.80;11.38;;;;;;;;;;5011895;28;20018;-66
2023/05/20 06:17:23;;;;;;;29.63;13.00;;;;;;;;;;5011784;28;20026;-65
2023/05/20 06:19:49;;;;;;;28.85;12.45;;;;;;;;;;5010455;28;20063;-66
2023/05/20 06:22:15;;;;;;;23.40;11.57;;;;;;;;;;5009586;28;20357;-65
2023/05/20 06:24:41;;;;;;;31.38;12.35;;;;;;;;;;5011678;28;20132;-66
2023/05/20 06:27:07;;;;;;;24.42;11.48;;;;;;;;;;5010045;28;20487;-66
2023/05/20 06:29:33;;;;;;;22.15;11.27;;;;;;;;;;5010865;28;20066;-66
2023/05/20 06:31:59;;;;;;;28.33;12.05;;;;;;;;;;5011934;28;20053;-66
2023/05/20 06:34:26;;;;;;;25.90;12.48;;;;;;;;;;5011726;28;20620;-67
2023/05/20 06:36:53;;;;;;;26.00;11.65;;;;;;;;;;5010662;28;20018;-67
2023/05/20 06:39:19;;;;;;;26.17;12.07;;;;;;;;;;5011861;28;20026;-66
2023/05/20 06:41:45;;;;;;;22.77;10.95;;;;;;;;;;5011652;28;20033;-66
2023/05/20 06:44:11;;;;;;;27.23;11.50;;;;;;;;;;5010538;28;20022;-66
2023/05/20 06:46:37;;;;;;;26.38;11.20;;;;;;;;;;5011641;28;20057;-66
2023/05/20 06:49:03;;;;;;;18.40;9.77;;;;;;;;;;5011494;28;20117;-64
2023/05/20 06:51:30;;;;;;;24.17;11.40;;;;;;;;;;5010687;28;20029;-61
2023/05/20 06:53:56;;;;;;;23.98;10.40;;;;;;;;;;5010835;28;20034;-61
2023/05/20 06:56:22;;;;;;;23.90;10.30;;;;;;;;;;5010366;28;20026;-61
2023/05/20 06:58:48;;;;;;;28.08;11.15;;;;;;;;;;5009400;28;20049;-62
2023/05/20 07:01:14;;;;;;;24.92;10.95;;;;;;;;;;5010083;28;20121;-61
2023/05/20 07:03:41;;;;;;;24.73;10.05;;;;;;;;;;5011337;28;20489;-62
2023/05/20 07:06:07;;;;;;;28.27;10.05;;;;;;;;;;5009993;28;20033;-61
2023/05/20 07:08:33;;;;;;;23.27;10.40;;;;;;;;;;5011081;28;20527;-63
2023/05/20 07:10:59;;;;;;;20.77;9.25;;;;;;;;;;5010412;28;20394;-61
2023/05/20 07:13:25;;;;;;;20.33;9.43;;;;;;;;;;5010919;28;20597;-62
2023/05/20 07:15:51;;;;;;;18.52;9.35;;;;;;;;;;5010115;28;20461;-61
2023/05/20 07:18:18;;;;;;;20.15;9.43;;;;;;;;;;5010855;28;20493;-60
2023/05/20 07:20:44;;;;;;;18.98;9.80;;;;;;;;;;5008844;28;20117;-63
2023/05/20 07:23:10;;;;;;;23.88;10.07;;;;;;;;;;5011158;28;20026;-62
2023/05/20 07:25:36;;;;;;;22.52;9.30;;;;;;;;;;5010046;28;20137;-63
2023/05/20 07:28:02;;;;;;;18.20;9.57;;;;;;;;;;5011089;28;20030;-62
2023/05/20 07:30:28;;;;;;;12.93;8.30;;;;;;;;;;5010106;28;20034;-62
2023/05/20 07:32:55;;;;;;;25.33;10.77;;;;;;;;;;5009240;28;20030;-62
2023/05/20 07:35:21;;;;;;;22.08;8.55;;;;;;;;;;5006611;28;20049;-63
2023/05/20 07:37:47;;;;;;;20.02;9.65;;;;;;;;;;5010784;28;20029;-63
2023/05/20 07:40:13;;;;;;;15.55;8.48;;;;;;;;;;5012058;28;20069;-62
2023/05/20 07:42:39;;;;;;;17.85;8.55;;;;;;;;;;5013099;28;20607;-62
2023/05/20 07:45:06;;;;;;;24.33;9.10;;;;;;;;;;5006274;28;20038;-62
2023/05/20 07:47:32;;;;;;;16.55;8.00;;;;;;;;;;5012954;28;20072;-62
2023/05/20 07:49:58;;;;;;;17.92;8.32;;;;;;;;;;5016158;28;20034;-63
2023/05/20 07:52:24;;;;;;;14.88;8.05;;;;;;;;;;5019185;28;20053;-62
2023/05/20 07:54:50;;;;;;;20.27;8.88;;;;;;;;;;5014045;28;20054;-62
2023/05/20 07:57:16;;;;;;;20.75;7.95;;;;;;;;;;5014506;28;20485;-62
2023/05/20 07:59:42;;;;;;;14.63;7.55;;;;;;;;;;5012720;28;20128;-63
2023/05/20 08:02:08;;;;;;;19.90;8.90;;;;;;;;;;5011811;28;20158;-61
2023/05/20 08:04:34;;;;;;;15.10;8.00;;;;;;;;;;5012394;28;20108;-62
2023/05/20 08:07:01;;;;;;;19.15;8.20;;;;;;;;;;5012213;28;20034;-62
2023/05/20 08:09:27;;;;;;;16.17;7.57;;;;;;;;;;4994629;28;20391;-62
2023/05/20 08:11:53;;;;;;;22.13;7.53;;;;;;;;;;4994479;28;20105;-63
2023/05/20 08:14:19;;;;;;;14.32;7.30;;;;;;;;;;5014122;28;20033;-62
2023/05/20 08:16:45;;;;;;;13.57;7.60;;;;;;;;;;5012391;28;20574;-62
2023/05/20 08:19:11;;;;;;;15.60;7.55;;;;;;;;;;5012967;28;20042;-63
2023/05/20 08:21:38;;;;;;;16.33;8.07;;;;;;;;;;5011429;28;20092;-63
2023/05/20 08:24:04;;;;;;;18.40;7.38;;;;;;;;;;5013583;28;20034;-62
2023/05/20 08:26:30;;;;;;;13.48;6.90;;;;;;;;;;5014062;28;20560;-62
2023/05/20 08:28:56;;;;;;;17.75;7.28;;;;;;;;;;5014097;28;20109;-61
2023/05/20 08:31:22;;;;;;;19.20;7.82;;;;;;;;;;5012983;28;20061;-63
2023/05/20 08:33:48;;;;;;;20.05;8.18;;;;;;;;;;5011857;28;20077;-62
2023/05/20 08:36:15;;;;;;;13.00;6.97;;;;;;;;;;5012016;28;20117;-62
2023/05/20 08:38:41;;;;;;;21.65;8.05;;;;;;;;;;5011756;28;20478;-62
2023/05/20 08:41:07;;;;;;;20.63;8.00;;;;;;;;;;5011973;28;20045;-62
2023/05/20 08:43:33;;;;;;;15.77;7.57;;;;;;;;;;5012315;28;20014;-65
2023/05/20 08:46:01;;;;;;;14.50;6.85;;;;;;;;;;5011784;28;20026;-62
2023/05/20 08:48:29;;;;;;;17.88;6.80;;;;;;;;;;5010184;28;20105;-62
2023/05/20 08:50:56;;;;;;;13.15;6.30;;;;;;;;;;5010435;28;20029;-63
2023/05/20 08:53:23;;;;;;;11.35;6.47;;;;;;;;;;5008739;28;20017;-62
2023/05/20 08:56:01;;;;;;;12.95;6.78;;;;;;;;;;5020477;28;20037;-62
2023/05/20 08:58:28;;;;;;;16.95;6.78;;;;;;;;;;5033157;28;20036;-63
2023/05/20 09:00:54;;;;;;;14.18;6.60;;;;;;;;;;5016118;28;20083;-63
2023/05/20 09:03:20;;;;;;;12.57;7.15;;;;;;;;;;5008757;28;20030;-63
2023/05/20 09:05:47;;;;;;;14.35;6.43;;;;;;;;;;5009661;28;20510;-61
2023/05/20 09:08:13;;;;;;;10.55;6.00;;;;;;;;;;5010952;28;20040;-62
2023/05/20 09:10:40;;;;;;;11.52;5.97;;;;;;;;;;5011345;28;20475;-63
2023/05/20 09:13:07;;;;;;;12.93;5.00;;;;;;;;;;5012922;28;20462;-63
2023/05/20 09:15:33;;;;;;;14.13;5.97;;;;;;;;;;5012909;28;20030;-62
2023/05/20 09:18:01;;;;;;;11.77;5.97;;;;;;;;;;5010564;28;20022;-63
2023/05/20 09:20:30;;;;;;;13.02;6.60;;;;;;;;;;5012743;28;20494;-62
2023/05/20 09:23:00;;;;;;;16.85;6.90;;;;;;;;;;5011139;28;20030;-62
2023/05/20 09:25:27;;;;;;;13.70;6.93;;;;;;;;;;5012429;28;20121;-63
2023/05/20 09:27:53;;;;;;;12.05;6.00;;;;;;;;;;5012532;28;20077;-63
2023/05/20 09:30:20;;;;;;;13.55;5.55;;;;;;;;;;5011859;28;20065;-62
2023/05/20 09:32:52;;;;;;;15.80;6.45;;;;;;;;;;5009271;28;20076;-62
2023/05/20 09:35:19;;;;;;;16.40;6.40;;;;;;;;;;5011493;28;20026;-64
2023/05/20 09:37:46;;;;;;;11.45;5.93;;;;;;;;;;5011527;28;20038;-64
2023/05/20 09:40:14;;;;;;;14.75;5.95;;;;;;;;;;5007579;28;20046;-65
2023/05/20 09:42:42;;;;;;;11.82;5.70;;;;;;;;;;5008497;28;20136;-64
2023/05/20 09:45:08;;;;;;;13.98;5.80;;;;;;;;;;5008339;28;20363;-64
2023/05/20 09:47:36;;;;;;;15.85;6.97;;;;;;;;;;5010253;28;20057;-65
2023/05/20 09:50:02;;;;;;;11.45;6.47;;;;;;;;;;5011509;28;20026;-64
2023/05/20 09:52:29;;;;;;;13.93;5.75;;;;;;;;;;5012342;28;20026;-63
2023/05/20 09:54:56;;;;;;;13.85;5.68;;;;;;;;;;5011569;28;20485;-62
2023/05/20 09:57:22;;;;;;;18.58;6.80;;;;;;;;;;5011708;28;20073;-61
2023/05/20 09:59:50;;;;;;;14.30;5.50;;;;;;;;;;5011404;28;20037;-65
2023/05/20 10:02:16;;;;;;;13.98;5.22;;;;;;;;;;5009730;28;20033;-65
2023/05/20 10:04:45;;;;;;;12.40;6.18;;;;;;;;;;5012283;28;20436;-65
2023/05/20 10:07:26;;;;;;;11.80;5.28;;;;;;;;;;4994825;28;20045;-64
2023/05/20 10:09:52;;;;;;;15.70;5.83;;;;;;;;;;5010640;28;20173;-64
2023/05/20 10:12:18;;;;;;;13.70;5.20;;;;;;;;;;5010818;28;20018;-64
2023/05/20 10:14:58;;;;;;;14.95;5.78;;;;;;;;;;5010325;28;20022;-65
2023/05/20 10:17:27;;;;;;;13.02;5.40;;;;;;;;;;5010485;28;20025;-61
2023/05/20 10:20:00;;;;;;;13.90;5.45;;;;;;;;;;5010112;28;20527;-63
2023/05/20 10:22:30;;;;;;;11.68;4.57;;;;;;;;;;5010072;28;20207;-63
2023/05/20 10:25:00;;;;;;;13.38;5.07;;;;;;;;;;5009869;28;20057;-62
2023/05/20 10:27:26;;;;;;;13.60;4.57;;;;;;;;;;5011848;28;20045;-63
2023/05/20 10:29:56;;;;;;;10.65;5.63;;;;;;;;;;5011841;28;20018;-64
2023/05/20 10:32:25;;;;;;;10.73;4.38;;;;;;;;;;5011779;28;20026;-64
2023/05/20 10:34:51;;;;;;;9.38;4.60;;;;;;;;;;5011438;28;20501;-62
2023/05/20 10:37:23;;;;;;;12.38;5.43;;;;;;;;;;5011690;28;20026;-63
2023/05/20 10:39:49;;;;;;;14.43;4.30;;;;;;;;;;5011751;28;20084;-63
2023/05/20 10:42:15;;;;;;;13.75;5.13;;;;;;;;;;5010503;28;20030;-63
2023/05/20 10:44:45;;;;;;;9.77;4.55;;;;;;;;;;5011563;28;20357;-63
2023/05/20 10:47:11;;;;;;;12.70;4.82;;;;;;;;;;5011771;28;20490;-63
2023/05/20 10:49:46;;;;;;;13.52;4.63;;;;;;;;;;5011763;28;20126;-63
2023/05/20 10:52:21;;;;;;;12.45;4.70;;;;;;;;;;5010305;28;20032;-63
2023/05/20 10:54:54;;;;;;;13.70;4.57;;;;;;;;;;5011504;28;20025;-65
2023/05/20 10:57:20;;;;;;;11.15;4.50;;;;;;;;;;5011510;28;20418;-63
2023/05/20 10:59:47;;;;;;;7.05;3.75;;;;;;;;;;5010418;28;20173;-62
2023/05/20 11:02:15;;;;;;;13.82;4.13;;;;;;;;;;5011220;28;20036;-61
2023/05/20 11:04:44;;;;;;;6.55;3.28;;;;;;;;;;5011290;28;20062;-62
2023/05/20 11:07:10;;;;;;;9.20;2.90;;;;;;;;;;5011257;28;20475;-63
2023/05/20 11:09:36;;;;;;;9.05;3.13;;;;;;;;;;5011264;28;20029;-62
2023/05/20 11:12:02;;;;;;;7.50;3.08;;;;;;;;;;5011439;28;20026;-63
2023/05/20 11:14:28;;;;;;;9.88;3.08;;;;;;;;;;5014761;28;20483;-63
2023/05/20 11:16:58;;;;;;;8.50;3.00;;;;;;;;;;5013587;28;20501;-63
2023/05/20 11:19:25;;;;;;;10.90;3.47;;;;;;;;;;5015090;28;20037;-64
2023/05/20 11:21:52;;;;;;;7.53;2.25;;;;;;;;;;5015372;28;20029;-62
2023/05/20 11:24:25;;;;;;;10.05;3.10;;;;;;;;;;5014750;28;20038;-62
2023/05/20 11:26:51;;;;;;;8.55;2.70;;;;;;;;;;5015079;28;20546;-62
2023/05/20 11:29:18;;;;;;;6.00;3.00;;;;;;;;;;5015123;28;20029;-63
2023/05/20 11:31:45;;;;;;;8.30;2.60;;;;;;;;;;5015136;28;20049;-62
2023/05/20 11:34:11;;;;;;;4.55;2.58;;;;;;;;;;5013847;28;20022;-63
2023/05/20 11:36:43;;;;;;;12.85;3.20;;;;;;;;;;5015204;28;20069;-63
2023/05/20 11:39:12;;;;;;;10.18;2.83;;;;;;;;;;5014769;28;20368;-61
2023/05/20 11:41:38;;;;;;;7.20;2.72;;;;;;;;;;5015256;28;20030;-64
2023/05/20 11:44:04;;;;;;;7.43;2.60;;;;;;;;;;5014886;28;20523;-64
2023/05/20 11:46:30;;;;;;;10.70;2.80;;;;;;;;;;5015245;28;20041;-63
2023/05/20 11:48:57;;;;;;;7.03;2.78;;;;;;;;;;5014157;28;20026;-63
2023/05/20 11:51:27;;;;;;;8.50;2.95;;;;;;;;;;5015049;28;20030;-63
2023/05/20 11:53:53;;;;;;;13.50;3.03;;;;;;;;;;5014872;28;20083;-62
2023/05/20 11:56:20;;;;;;;8.40;2.78;;;;;;;;;;5015177;28;20053;-63
2023/05/20 11:58:46;;;;;;;5.90;2.47;;;;;;;;;;5014411;28;20025;-63
2023/05/20 12:01:12;;;;;;;6.00;2.17;;;;;;;;;;5014834;28;20054;-62
2023/05/20 12:03:38;;;;;;;5.78;2.40;;;;;;;;;;5014770;28;20028;-63
2023/05/20 12:06:04;;;;;;;5.88;2.25;;;;;;;;;;5013507;28;20117;-63
2023/05/20 12:08:30;;;;;;;7.30;2.70;;;;;;;;;;5014535;28;20045;-63
2023/05/20 12:10:56;;;;;;;5.35;1.83;;;;;;;;;;5014592;28;20033;-63
2023/05/20 12:13:23;;;;;;;5.63;2.05;;;;;;;;;;5014329;28;20029;-63
2023/05/20 12:15:49;;;;;;;8.10;2.45;;;;;;;;;;5014484;28;20112;-62
2023/05/20 12:18:15;;;;;;;4.65;1.83;;;;;;;;;;5013966;28;20029;-63
2023/05/20 12:20:42;;;;;;;3.85;1.90;;;;;;;;;;5014423;28;20026;-62
2023/05/20 12:23:08;;;;;;;5.13;1.88;;;;;;;;;;5013192;28;20044;-62
2023/05/20 12:25:34;;;;;;;4.63;1.80;;;;;;;;;;5013513;28;20341;-63
2023/05/20 12:28:01;;;;;;;4.63;2.10;;;;;;;;;;5014052;28;20022;-64
2023/05/20 12:30:27;;;;;;;9.32;2.20;;;;;;;;;;5014026;28;20025;-62
2023/05/20 12:32:53;;;;;;;4.05;1.90;;;;;;;;;;5013768;28;20036;-62
2023/05/20 12:35:35;;;;;;;6.00;2.40;;;;;;;;;;5014021;28;20022;-62
2023/05/20 12:38:01;;;;;;;9.60;2.20;;;;;;;;;;5012984;28;20033;-63
2023/05/20 12:40:27;;;;;;;4.70;1.52;;;;;;;;;;5013742;28;20545;-63
2023/05/20 12:42:53;;;;;;;5.30;1.60;;;;;;;;;;5013740;28;20097;-63
2023/05/20 12:45:19;;;;;;;4.55;1.77;;;;;;;;;;5013753;28;20356;-63
2023/05/20 12:47:47;;;;;;;4.43;1.83;;;;;;;;;;5013684;28;20110;-62
2023/05/20 12:50:13;;;;;;;5.80;1.80;;;;;;;;;;5013597;28;20029;-63
2023/05/20 12:52:39;;;;;;;4.70;1.60;;;;;;;;;;5013735;28;20057;-63
2023/05/20 12:55:12;;;;;;;6.28;2.03;;;;;;;;;;5011742;28;20383;-62
2023/05/20 12:57:38;;;;;;;7.15;1.70;;;;;;;;;;4993919;28;20022;-63
2023/05/20 13:00:05;;;;;;;6.00;1.70;;;;;;;;;;4993650;28;20034;-63
2023/05/20 13:02:31;;;;;;;5.35;1.95;;;;;;;;;;4993864;28;20031;-64
2023/05/20 13:04:57;;;;;;;4.05;1.60;;;;;;;;;;4993472;28;20030;-62
2023/05/20 13:07:25;;;;;;;4.78;1.55;;;;;;;;;;4993776;28;20080;-62
2023/05/20 13:09:51;;;;;;;3.65;1.60;;;;;;;;;;4993674;28;20042;-63
2023/05/20 13:12:17;;;;;;;8.77;1.50;;;;;;;;;;4996397;28;20073;-62
2023/05/20 13:14:43;;;;;;;4.93;1.42;;;;;;;;;;5013251;28;20064;-62
2023/05/20 13:17:10;;;;;;;3.97;1.50;;;;;;;;;;5012980;28;20076;-63
2023/05/20 13:19:37;;;;;;;3.97;1.58;;;;;;;;;;5013081;28;20446;-64
2023/05/20 13:22:03;;;;;;;4.50;1.60;;;;;;;;;;5013000;28;20022;-62
2023/05/20 13:24:29;;;;;;;6.07;1.52;;;;;;;;;;5012732;28;20050;-62
2023/05/20 13:26:55;;;;;;;3.65;1.30;;;;;;;;;;5012983;28;20069;-62
2023/05/20 13:29:21;;;;;;;4.35;2.03;;;;;;;;;;5010686;28;20046;-62
2023/05/20 13:31:48;;;;;;;2.25;1.17;;;;;;;;;;5012894;28;20029;-63
2023/05/20 13:34:14;;;;;;;2.53;1.45;;;;;;;;;;5012685;28;20052;-63
2023/05/20 13:36:40;;;;;;;3.47;1.25;;;;;;;;;;5011667;28;20021;-62
2023/05/20 13:39:06;;;;;;;6.13;1.30;;;;;;;;;;5012626;28;20034;-61
2023/05/20 13:41:32;;;;;;;6.07;1.75;;;;;;;;;;5011508;28;20095;-63
2023/05/20 13:43:58;;;;;;;3.83;1.95;;;;;;;;;;5012787;28;20033;-63
2023/05/20 13:46:24;;;;;;;4.10;1.60;;;;;;;;;;5011812;28;20026;-62
2023/05/20 13:48:50;;;;;;;2.65;1.40;;;;;;;;;;5012563;28;20029;-62
2023/05/20 13:51:16;;;;;;;2.38;1.27;;;;;;;;;;5012596;28;20029;-63
2023/05/20 13:53:42;;;;;;;3.92;1.73;;;;;;;;;;5012239;28;20026;-62
2023/05/20 13:56:08;;;;;;;2.80;1.50;;;;;;;;;;5011048;28;20033;-62
2023/05/20 13:58:38;;;;;;;2.47;1.33;;;;;;;;;;5012480;28;20018;-62
2023/05/20 14:01:05;;;;;;;5.72;1.40;;;;;;;;;;5012341;28;20438;-62
2023/05/20 14:03:31;;;;;;;5.55;2.10;;;;;;;;;;5011135;28;20724;-63
2023/05/20 14:05:58;;;;;;;4.50;1.50;;;;;;;;;;5012085;28;20525;-64
2023/05/20 14:08:24;;;;;;;6.03;1.70;;;;;;;;;;5012195;28;20474;-62
2023/05/20 14:10:53;;;;;;;6.90;1.63;;;;;;;;;;5012476;28;20080;-63
2023/05/20 14:13:22;;;;;;;7.03;1.40;;;;;;;;;;5012160;28;20080;-63
2023/05/20 14:15:53;;;;;;;2.70;1.20;;;;;;;;;;5012364;28;20065;-63
2023/05/20 14:18:19;;;;;;;6.32;1.90;;;;;;;;;;5012001;28;20076;-63
2023/05/20 14:20:46;;;;;;;2.55;1.42;;;;;;;;;;5010847;28;20077;-63
2023/05/20 14:23:12;;;;;;;5.40;1.48;;;;;;;;;;5012050;28;20032;-63
2023/05/20 14:25:39;;;;;;;5.03;1.55;;;;;;;;;;5011605;28;20499;-63